Wray, Colorado
Current Conditions -  °F | °C
As of 9:55 PM on Saturday 22 Nov 2014 (Local Time) from K2V5 Reporting Station
Clear Clear  
Wind Chill: 44°   Ceiling: Unl
Heat Index: 47°   Visibility: 10mi
Dew Point: 15°   Wind: 6mph
Humidity: 28%   Direction: 70°ENE
Pressure: 29.5"   Gusts: NA
Location:  40.08°N, 102.22°W
Report Text: K2V5 230455Z AUTO 07005KT 10SM CLR 08/M09 A2950 RMK AO2 T00821093
Loading
Personal Weather Stations






























Interactive Weather Map New forecast layout! Learn more

10-Day Weather Forecast

Advertisements
Track Severe Weather on mobile